Weather


ICAO METAR
KAPA KAPA 191919Z 36011KT 3SM -SN BR OVC010 M06/M09 A3022 RMK AO2 P0000 T10561089
KASE KASE 191853Z 33004KT 10SM SCT120 00/M12 A3005 RMK AO2 SLP185 T00001117
KBJC KBJC 191855Z 36011KT 3SM -SN SCT009 BKN014 OVC030 M05/M07 A3025 RMK VIS SW-NW 2
KBKF KBKF 191858Z 36010KT 5SM -SN BR OVC008 M06/M07 A3024 RMK AO2A SLP284 P0000 T10651073
KCOS KCOS 191854Z 02010KT 10SM BKN023 M02/M08 A3017 RMK AO2 SLP262 T10171083
KCPR KCPR 191853Z 31003KT 6SM -SN OVC011 M12/M14 A3036 RMK AO2 SNE1758B53 SLP370 P0000 T11171144 $
KCYS KCYS 191912Z 04009KT 4SM -SN OVC013 M07/M11 A3023 RMK AO2 P0000 T10721111 $
KDEN KDEN 191917Z 02009KT 2 1/2SM -SN BR OVC008 M06/M08 A3025 RMK AO2 P0000 T10611078
KEGE KEGE 191856Z 00000KT 10SM CLR M02/M09 A3012 RMK AO2 SLP258 T10171094 PNO $
KFCS KFCS 191858Z AUTO 01010KT 10SM OVC025 M01/M08 A3016 RMK AO2 SLP277 P0001 T10121076 $
KFMN KFMN 191853Z VRB03KT 10SM FEW075 11/M04 A3008 RMK AO2 SLP183 T01061044
KFTG KFTG 300455Z AUTO 26006KT 10SM SCT013 BKN023 OVC060 M01/M02 A3006 RMK AO2 T10111023
KGCC KGCC 191853Z AUTO 22008KT 10SM SCT012 M07/M10 A3040 RMK AO2 SLP353 T10721100
KGJT KGJT 191853Z 00000KT 10SM CLR 05/M12 A3014 RMK AO2 SLP220 T00501117
KPUB KPUB 191853Z 02014KT 10SM OVC028 01/M04 A3020 RMK AO2 SLP246 T00061044
KRAP KRAP 191852Z 11003KT 10SM OVC017 M09/M13 A3050 RMK AO2 SLP394 T10941133
KRCA KRCA 191903Z 10003KT 8SM -SN FEW006 OVC011 M09/M13 A3049 RMK AO2A SNE1856UPB1856E1859UPB03 CIG 006 RWY13 SLP392 $

Surface Data
Click here.

This is a composite map contain the following analyses: radar summary (color filled areas), surface data plot (composite station model), frontal locations (in various bold lines) and pressure contours (in thin blue lines).